K6NLC-6 Weather Reports


Display with metric or nautical units.
time (UTC)temp
F
wind
direction
speed
MPH
gust
MPH
rain 1hr
in
rain 24hr
in
rain mn
in
humidity
%
barometer
mb
20210921051029 65 0.0 0.0 0.00 0.00 0.00 72 1015.7
20210921050031 65 0.0 0.0 0.00 0.00 0.00 73 1015.8
20210921045031 65 0.0 0.0 0.00 0.00 0.00 73 1015.7
20210921044032 65 0.0 0.0 0.00 0.00 0.00 71 1015.7
20210921043026 65 325 1.0 2.0 0.00 0.00 0.00 72 1015.7
20210921042016 66 0.0 0.0 0.00 0.00 0.00 69 1015.7
20210921041017 67 0.0 0.0 0.00 0.00 0.00 68 1015.7
20210921040018 67 350 0.0 1.0 0.00 0.00 0.00 67 1015.5
20210921035019 68 45 0.0 1.0 0.00 0.00 0.00 66 1015.3
20210921034024 68 31 1.0 2.0 0.00 0.00 0.00 65 1015.2
20210921033021 69 33 0.0 2.0 0.00 0.00 0.00 63 1015.1
20210921032020 69 24 2.0 3.0 0.00 0.00 0.00 59 1014.9
20210921031017 70 32 2.0 3.0 0.00 0.00 0.00 54 1014.7
20210921030017 71 22 0.0 2.0 0.00 0.00 0.00 50 1014.6
20210921025018 72 0.0 0.0 0.00 0.00 0.00 45 1014.4
20210921024019 72 180 0.0 2.0 0.00 0.00 0.00 44 1014.3
20210921023028 73 191 1.0 2.0 0.00 0.00 0.00 44 1014.2
20210921022016 73 144 2.0 3.0 0.00 0.00 0.00 43 1014.0
20210921021016 74 139 2.0 4.0 0.00 0.00 0.00 42 1014.1
20210921020017 75 157 2.0 4.0 0.00 0.00 0.00 41 1013.9
20210921015018 76 154 3.0 4.0 0.00 0.00 0.00 40 1013.8
20210921014019 77 147 3.0 5.0 0.00 0.00 0.00 40 1013.7
20210921013020 79 161 3.0 5.0 0.00 0.00 0.00 38 1013.7
20210921012016 79 139 3.0 5.0 0.00 0.00 0.00 38 1013.7
20210921011021 81 141 3.0 7.0 0.00 0.00 0.00 36 1013.5
20210921010016 81 137 4.0 7.0 0.00 0.00 0.00 35 1013.5
20210921005018 82 114 4.0 7.0 0.00 0.00 0.00 35 1013.5
20210921004018 83 153 4.0 7.0 0.00 0.00 0.00 34 1013.5
20210921003019 84 146 4.0 7.0 0.00 0.00 0.00 33 1013.4
20210921002019 84 155 4.0 6.0 0.00 0.00 0.00 33 1013.2
20210921001020 85 165 4.0 7.0 0.00 0.00 0.00 33 1013.4
20210921000020 85 126 4.0 7.0 0.00 0.00 0.00 33 1013.5
20210920235016 85 156 4.0 7.0 0.00 0.00 0.00 33 1013.5
20210920234016 85 128 6.0 9.0 0.00 0.00 0.00 33 1013.5
20210920233017 86 129 5.0 8.0 0.00 0.00 0.00 33 1013.5
20210920232030 87 116 4.0 9.0 0.00 0.00 0.00 32 1013.5
20210920231031 86 158 6.0 8.0 0.00 0.00 0.00 32 1013.5
20210920230032 88 107 5.0 9.0 0.00 0.00 0.00 31 1013.5
20210920225032 89 128 5.0 8.0 0.00 0.00 0.00 31 1013.5
20210920224028 90 107 4.0 6.0 0.00 0.00 0.00 31 1013.5
20210920223024 88 108 5.0 8.0 0.00 0.00 0.00 32 1013.5
20210920222018 88 159 5.0 7.0 0.00 0.00 0.00 32 1013.5
20210920221031 90 128 5.0 7.0 0.00 0.00 0.00 32 1013.5
20210920220026 91 109 5.0 8.0 0.00 0.00 0.00 31 1013.5
20210920215027 91 87 5.0 8.0 0.00 0.00 0.00 30 1013.5
20210920214029 92 92 4.0 7.0 0.00 0.00 0.00 30 1013.5
20210920213029 91 58 5.0 6.0 0.00 0.00 0.00 30 1013.5
20210920212031 91 43 7.0 10.0 0.00 0.00 0.00 30 1013.2
20210920211032 93 40 7.0 9.0 0.00 0.00 0.00 29 1013.2
20210920210034 94 39 5.0 7.0 0.00 0.00 0.00 28 1013.5
20210920205016 95 51 7.0 10.0 0.00 0.00 0.00 27 1013.5
20210920204016 96 104 4.0 7.0 0.00 0.00 0.00 25 1013.6
20210920203017 97 50 2.0 4.0 0.00 0.00 0.00 25 1013.7
20210920202018 95 40 2.0 4.0 0.00 0.00 0.00 26 1013.7
20210920201032 94 40 3.0 5.0 0.00 0.00 0.00 27 1013.9
20210920200033 93 60 4.0 5.0 0.00 0.00 0.00 27 1014.0
20210920195016 94 196 2.0 5.0 0.00 0.00 0.00 27 1014.1
20210920194016 93 59 4.0 6.0 0.00 0.00 0.00 27 1014.2
20210920193018 94 172 4.0 6.0 0.00 0.00 0.00 27 1014.2
20210920192018 94 147 2.0 3.0 0.00 0.00 0.00 26 1014.4
20210920191021 93 154 3.0 5.0 0.00 0.00 0.00 27 1014.6
20210920190021 92 163 2.0 6.0 0.00 0.00 0.00 28 1014.5
20210920185021 91 115 2.0 3.0 0.00 0.00 0.00 28 1014.6
20210920184022 90 120 3.0 5.0 0.00 0.00 0.00 29 1014.7
20210920183024 89 0.0 0.0 0.00 0.00 0.00 30 1014.9
20210920182017 88 9 3.0 6.0 0.00 0.00 0.00 30 1014.9
20210920181025 88 319 3.0 6.0 0.00 0.00 0.00 31 1015.0
20210920180025 88 88 3.0 5.0 0.00 0.00 0.00 30 1015.0
20210920175027 88 49 2.0 2.0 0.00 0.00 0.00 31 1015.0
20210920174026 87 180 0.0 3.0 0.00 0.00 0.00 31 1015.0
20210920173027 87 106 2.0 5.0 0.00 0.00 0.00 32 1015.1
20210920172029 86 122 2.0 5.0 0.00 0.00 0.00 33 1015.0
20210920171030 84 194 3.0 7.0 0.00 0.00 0.00 34 1014.9
20210920170030 84 233 3.0 6.0 0.00 0.00 0.00 34 1014.9
20210920165031 82 185 3.0 5.0 0.00 0.00 0.00 37 1014.8
20210920164025 81 190 4.0 7.0 0.00 0.00 0.00 36 1014.7
20210920163021 83 248 3.0 5.0 0.00 0.00 0.00 35 1014.7
20210920162015 83 263 2.0 3.0 0.00 0.00 0.00 36 1014.6
20210920161028 80 232 3.0 6.0 0.00 0.00 0.00 38 1014.7
20210920160028 79 0.0 0.0 0.00 0.00 0.00 39 1014.6
20210920155031 79 2 2.0 3.0 0.00 0.00 0.00 39 1014.6
20210920154031 78 257 1.0 3.0 0.00 0.00 0.00 42 1014.6
20210920153032 77 312 1.0 3.0 0.00 0.00 0.00 44 1014.5
20210920152032 76 279 4.0 6.0 0.00 0.00 0.00 42 1014.4
20210920151017 75 311 1.0 5.0 0.00 0.00 0.00 42 1014.4
20210920150017 73 180 3.0 8.0 0.00 0.00 0.00 46 1014.4
20210920145017 72 54 1.0 3.0 0.00 0.00 0.00 49 1014.3
20210920144023 72 238 0.0 3.0 0.00 0.00 0.00 48 1014.2
20210920143019 69 222 1.0 3.0 0.00 0.00 0.00 51 1014.2
20210920142020 67 136 2.0 4.0 0.00 0.00 0.00 54 1014.2
20210920141015 68 318 1.0 3.0 0.00 0.00 0.00 52 1013.9
20210920140016 68 278 3.0 6.0 0.00 0.00 0.00 52 1013.9
20210920135030 68 184 3.0 7.0 0.00 0.00 0.00 51 1013.9
20210920134030 67 163 3.0 8.0 0.00 0.00 0.00 55 1014.0
20210920133032 68 277 1.0 4.0 0.00 0.00 0.00 53 1013.7
20210920132033 70 247 3.0 5.0 0.00 0.00 0.00 48 1013.7
20210920131034 71 210 3.0 5.0 0.00 0.00 0.00 47 1013.7
20210920130017 71 235 3.0 4.0 0.00 0.00 0.00 48 1013.7
20210920125017 72 254 7.0 13.0 0.00 0.00 0.00 48 1013.7
20210920124025 72 236 4.0 9.0 0.00 0.00 0.00 47 1013.6
20210920123019 72 257 8.0 12.0 0.00 0.00 0.00 47 1013.5
20210920122032 72 198 6.0 10.0 0.00 0.00 0.00 48 1013.5
20210920121015 72 203 7.0 14.0 0.00 0.00 0.00 48 1013.5
20210920120016 71 215 6.0 12.0 0.00 0.00 0.00 49 1013.7
20210920115030 72 217 6.0 12.0 0.00 0.00 0.00 47 1013.8
20210920114030 70 260 5.0 11.0 0.00 0.00 0.00 50 1014.0
20210920113031 71 199 6.0 13.0 0.00 0.00 0.00 50 1014.0
20210920112026 70 210 4.0 8.0 0.00 0.00 0.00 51 1014.0
20210920111027 71 236 6.0 12.0 0.00 0.00 0.00 49 1014.1
20210920110028 71 182 7.0 10.0 0.00 0.00 0.00 49 1014.1
20210920105029 71 204 7.0 12.0 0.00 0.00 0.00 49 1014.1
20210920104023 70 205 7.0 12.0 0.00 0.00 0.00 50 1014.2
20210920103018 70 246 8.0 13.0 0.00 0.00 0.00 52 1014.2
20210920102031 69 235 8.0 12.0 0.00 0.00 0.00 53 1014.5
20210920101032 69 206 7.0 11.0 0.00 0.00 0.00 54 1014.6
20210920100027 68 237 6.0 10.0 0.00 0.00 0.00 57 1014.7
20210920095028 67 200 8.0 14.0 0.00 0.00 0.00 60 1014.7
20210920094024 67 197 8.0 12.0 0.00 0.00 0.00 62 1014.7
20210920093025 67 229 6.0 11.0 0.00 0.00 0.00 63 1014.7
20210920092026 67 224 4.0 9.0 0.00 0.00 0.00 63 1014.7
20210920091026 67 62 4.0 7.0 0.00 0.00 0.00 63 1014.9
20210920090026 67 180 5.0 9.0 0.00 0.00 0.00 64 1015.0
20210920085046 66 63 4.0 7.0 0.00 0.00 0.00 65 1015.0
20210920084021 66 144 3.0 9.0 0.00 0.00 0.00 65 1015.0
20210920083016 66 257 3.0 7.0 0.00 0.00 0.00 65 1015.1
20210920082028 66 43 2.0 4.0 0.00 0.00 0.00 66 1015.1
20210920081029 66 14 2.0 5.0 0.00 0.00 0.00 66 1015.2
20210920080030 66 352 3.0 4.0 0.00 0.00 0.00 66 1015.1
20210920075031 65 346 3.0 5.0 0.00 0.00 0.00 68 1015.1
20210920074032 63 309 4.0 6.0 0.00 0.00 0.00 74 1015.1
20210920073016 61 48 4.0 7.0 0.00 0.00 0.00 82 1015.2
20210920072017 59 7 4.0 7.0 0.00 0.00 0.00 89 1015.2
20210920071029 57 53 2.0 5.0 0.00 0.00 0.00 97 1015.6
20210920070035 57 286 0.0 2.0 0.00 0.00 0.00 97 1015.7
20210920065025 57 80 0.0 2.0 0.00 0.00 0.00 97 1015.7
20210920064020 57 265 1.0 4.0 0.00 0.00 0.00 97 1015.7
20210920063033 58 141 0.0 3.0 0.00 0.00 0.00 96 1015.7
20210920062033 58 236 1.0 3.0 0.00 0.00 0.00 97 1015.8
20210920061015 58 284 2.0 4.0 0.00 0.00 0.00 96 1015.7
20210920060016 58 67 0.0 2.0 0.00 0.00 0.00 96 1015.7
20210920055018 58 0.0 0.0 0.00 0.00 0.00 96 1015.8
20210920054018 58 0.0 0.0 0.00 0.00 0.00 96 1015.9
20210920053019 58 0.0 0.0 0.00 0.00 0.00 95 1015.9
20210920052020 59 0.0 0.0 0.00 0.00 0.00 95 1015.9